Terminal Aerodrome Forecast
Issued by NWS

Home | Current Version | Previous Version | Text Only | Print | Product List | Glossary Off
Versions: 1 2 3 4 5 6 7 8 9 10 11 12 13 14 15 16 17 18 19

000
FTUS43 KGRB 202300
TAFMTW
TAF
KMTW 202336Z 2100/2124 27014G22KT P6SM VCSH BKN020 OVC035
     FM210200 25011KT P6SM OVC040
     FM211000 26012KT P6SM VCSH BKN025 OVC060
     FM211600 27016G24KT P6SM -SHRA SCT020 OVC035=

USA.gov is the U.S. government's official web portal to all federal, state and local government web resources and services.